createdAt,value
2023-11-16T00:00:42.796Z,2.6
2023-11-16T00:01:49.385Z,2.6
2023-11-16T00:02:56.440Z,2.6
2023-11-16T00:04:03.124Z,2.6
2023-11-16T00:05:10.102Z,2.6
2023-11-16T00:06:17.324Z,2.6
2023-11-16T00:08:31.401Z,2.7
2023-11-16T00:09:38.056Z,2.7
2023-11-16T00:10:45.157Z,2.7
2023-11-16T00:11:52.797Z,2.7
2023-11-16T00:12:59.325Z,2.7
2023-11-16T00:14:06.504Z,2.7
2023-11-16T00:15:13.313Z,2.7
2023-11-16T00:16:20.133Z,2.7
2023-11-16T00:17:27.299Z,2.7
2023-11-16T00:18:34.380Z,2.7
2023-11-16T00:19:41.437Z,2.7
2023-11-16T00:20:48.001Z,2.7
2023-11-16T00:21:55.133Z,2.6
2023-11-16T00:23:03.823Z,2.6
2023-11-16T00:24:09.348Z,2.6
2023-11-16T00:25:16.022Z,2.6
2023-11-16T00:26:23.583Z,2.6
2023-11-16T00:27:30.138Z,2.5
2023-11-16T00:28:37.364Z,2.5
2023-11-16T00:29:44.337Z,2.5
2023-11-16T00:30:50.927Z,2.5
2023-11-16T00:31:58.015Z,2.5
2023-11-16T00:33:05.215Z,2.5
2023-11-16T00:34:12.239Z,2.5
2023-11-16T00:35:19.338Z,2.5
2023-11-16T00:36:26.506Z,2.5
2023-11-16T00:37:33.080Z,2.4
2023-11-16T00:38:40.244Z,2.4
2023-11-16T00:39:47.312Z,2.4
2023-11-16T00:40:54.361Z,2.4
2023-11-16T00:42:01.029Z,2.4
2023-11-16T00:43:08.018Z,2.4
2023-11-16T00:44:15.164Z,2.4
2023-11-16T00:45:22.393Z,2.4
2023-11-16T00:46:29.408Z,2.4
2023-11-16T00:47:36.037Z,2.4
2023-11-16T00:48:43.161Z,2.4
2023-11-16T00:49:50.140Z,2.4
2023-11-16T00:50:57.299Z,2.4
2023-11-16T00:52:04.382Z,2.4
2023-11-16T00:53:10.987Z,2.4
2023-11-16T00:54:18.186Z,2.4
2023-11-16T00:55:25.166Z,2.4
2023-11-16T00:56:32.290Z,2.4
2023-11-16T00:57:39.437Z,2.4
2023-11-16T00:58:46.204Z,2.4
2023-11-16T00:59:53.158Z,2.5
2023-11-16T01:01:00.263Z,2.5
2023-11-16T01:02:07.319Z,2.5
2023-11-16T01:04:20.978Z,2.5
2023-11-16T01:05:28.070Z,2.5
2023-11-16T01:06:35.281Z,2.5
2023-11-16T01:07:42.322Z,2.5
2023-11-16T01:08:49.404Z,2.5
2023-11-16T01:09:56.071Z,2.4
2023-11-16T01:12:10.180Z,2.4
2023-11-16T01:13:18.262Z,2.4
2023-11-16T01:14:24.429Z,2.4
2023-11-16T01:15:31.140Z,2.4
2023-11-16T01:16:38.155Z,2.4
2023-11-16T01:17:45.271Z,2.4
2023-11-16T01:18:52.453Z,2.4
2023-11-16T01:19:59.439Z,2.4
2023-11-16T01:21:06.008Z,2.4
2023-11-16T01:22:13.095Z,2.4
2023-11-16T01:23:20.199Z,2.4
2023-11-16T01:24:28.205Z,2.4
2023-11-16T01:25:34.526Z,2.4
2023-11-16T01:26:41.189Z,2.4
2023-11-16T01:27:48.171Z,2.4
2023-11-16T01:28:55.254Z,2.4
2023-11-16T01:30:02.973Z,2.4
2023-11-16T01:31:09.513Z,2.4
2023-11-16T01:32:16.001Z,2.4
2023-11-16T01:33:23.161Z,2.4
2023-11-16T01:34:30.224Z,2.3
2023-11-16T01:35:37.399Z,2.3
2023-11-16T01:36:44.510Z,2.3
2023-11-16T01:37:51.013Z,2.3
2023-11-16T01:38:58.102Z,2.3
2023-11-16T01:40:05.759Z,2.3
2023-11-16T01:41:12.429Z,2.3
2023-11-16T01:42:19.453Z,2.3
2023-11-16T01:43:26.067Z,2.3
2023-11-16T01:44:33.129Z,2.3
2023-11-16T01:45:40.354Z,2.3
2023-11-16T01:46:47.459Z,2.3
2023-11-16T01:47:54.476Z,2.3
2023-11-16T01:49:01.051Z,2.3
2023-11-16T01:50:08.180Z,2.3
2023-11-16T01:51:15.397Z,2.3
2023-11-16T01:52:22.483Z,2.3
2023-11-16T01:53:29.449Z,2.3
2023-11-16T01:54:36.075Z,2.3
2023-11-16T01:55:43.225Z,2.3
2023-11-16T01:56:50.214Z,2.3
2023-11-16T01:57:57.481Z,2.3
2023-11-16T01:59:04.475Z,2.3
2023-11-16T02:00:11.070Z,2.3
2023-11-16T02:01:18.216Z,2.3
2023-11-16T02:02:25.316Z,2.3
2023-11-16T02:03:32.706Z,2.3
2023-11-16T02:04:39.539Z,2.3
2023-11-16T02:05:46.052Z,2.3
2023-11-16T02:06:53.149Z,2.3
2023-11-16T02:08:00.250Z,2.3
2023-11-16T02:09:07.412Z,2.3
2023-11-16T02:10:14.613Z,2.3
2023-11-16T02:11:21.073Z,2.3
2023-11-16T02:12:28.178Z,2.3
2023-11-16T02:13:35.331Z,2.3
2023-11-16T02:15:49.479Z,2.3
2023-11-16T02:16:56.067Z,2.3
2023-11-16T02:18:03.180Z,2.3
2023-11-16T02:19:10.320Z,2.3
2023-11-16T02:20:17.352Z,2.3
2023-11-16T02:21:24.516Z,2.3
2023-11-16T02:22:31.109Z,2.3
2023-11-16T02:23:38.162Z,2.4
2023-11-16T02:24:45.361Z,2.4
2023-11-16T02:25:52.489Z,2.4
2023-11-16T02:26:59.489Z,2.4
2023-11-16T02:28:06.070Z,2.4
2023-11-16T02:29:13.220Z,2.4
2023-11-16T02:30:20.343Z,2.4
2023-11-16T02:32:34.547Z,2.5
2023-11-16T02:33:41.635Z,2.5
2023-11-16T02:34:48.188Z,2.5
2023-11-16T02:35:55.316Z,2.5
2023-11-16T02:37:02.548Z,2.5
2023-11-16T02:38:09.510Z,2.5
2023-11-16T02:39:16.137Z,2.5
2023-11-16T02:40:24.231Z,2.5
2023-11-16T02:41:30.406Z,2.5
2023-11-16T02:42:37.457Z,2.5
2023-11-16T02:43:44.560Z,2.5
2023-11-16T02:44:51.141Z,2.5
2023-11-16T02:45:58.177Z,2.4
2023-11-16T02:47:05.435Z,2.5
2023-11-16T02:48:12.584Z,2.5
2023-11-16T02:49:19.523Z,2.5
2023-11-16T02:50:26.147Z,2.5
2023-11-16T02:51:33.196Z,2.5
2023-11-16T02:52:40.359Z,2.5
2023-11-16T02:53:47.455Z,2.5
2023-11-16T02:54:54.042Z,2.5
2023-11-16T02:56:01.129Z,2.5
2023-11-16T02:57:08.227Z,2.4
2023-11-16T02:58:16.064Z,2.4
2023-11-16T02:59:22.627Z,2.4
2023-11-16T03:00:29.113Z,2.4
2023-11-16T03:01:36.207Z,2.4
2023-11-16T03:02:43.275Z,2.4
2023-11-16T03:03:50.422Z,2.4
2023-11-16T03:04:57.466Z,2.4
2023-11-16T03:06:04.182Z,2.3
2023-11-16T03:07:20.114Z,2.4
2023-11-16T03:08:18.753Z,2.3
2023-11-16T03:09:25.456Z,2.3
2023-11-16T03:10:32.541Z,2.3
2023-11-16T03:11:39.044Z,2.3
2023-11-16T03:12:46.159Z,2.3
2023-11-16T03:13:53.267Z,2.4
2023-11-16T03:15:00.392Z,2.3
2023-11-16T03:16:07.468Z,2.3
2023-11-16T03:17:14.059Z,2.3
2023-11-16T03:19:28.220Z,2.3
2023-11-16T03:20:35.409Z,2.3
2023-11-16T03:21:42.651Z,2.3
2023-11-16T03:22:49.037Z,2.3
2023-11-16T03:23:56.157Z,2.3
2023-11-16T03:25:03.229Z,2.3
2023-11-16T03:26:10.329Z,2.3
2023-11-16T03:27:17.502Z,2.3
2023-11-16T03:28:25.983Z,2.3
2023-11-16T03:29:31.169Z,2.3
2023-11-16T03:30:38.323Z,2.2
2023-11-16T03:31:45.366Z,2.2
2023-11-16T03:32:52.498Z,2.2
2023-11-16T03:33:59.021Z,2.2
2023-11-16T03:35:06.291Z,2.2
2023-11-16T03:36:13.300Z,2.2
2023-11-16T03:37:20.889Z,2.2
2023-11-16T03:38:27.489Z,2.2
2023-11-16T03:39:34.115Z,2.2
2023-11-16T03:40:41.136Z,2.3
2023-11-16T03:41:48.274Z,2.3
2023-11-16T03:42:55.373Z,2.3
2023-11-16T03:44:02.502Z,2.3
2023-11-16T03:45:09.171Z,2.3
2023-11-16T03:46:16.230Z,2.2
2023-11-16T03:47:23.397Z,2.3
2023-11-16T03:48:30.448Z,2.3
2023-11-16T03:49:37.523Z,2.3
2023-11-16T03:50:44.094Z,2.3
2023-11-16T03:51:51.220Z,2.3
2023-11-16T03:52:58.333Z,2.3
2023-11-16T03:54:05.563Z,2.3
2023-11-16T03:55:12.512Z,2.3
2023-11-16T03:56:19.072Z,2.3
2023-11-16T03:57:26.408Z,2.3
2023-11-16T03:58:33.313Z,2.3
2023-11-16T03:59:40.381Z,2.3
2023-11-16T04:00:47.506Z,2.3
2023-11-16T04:01:54.176Z,2.3
2023-11-16T04:03:01.469Z,2.3
2023-11-16T04:04:08.322Z,2.3
2023-11-16T04:05:15.435Z,2.3
2023-11-16T04:06:22.555Z,2.2
2023-11-16T04:07:29.068Z,2.3
2023-11-16T04:08:36.270Z,2.2
2023-11-16T04:09:43.385Z,2.2
2023-11-16T04:10:50.398Z,2.2
2023-11-16T04:11:57.494Z,2.2
2023-11-16T04:13:04.109Z,2.2
2023-11-16T04:14:11.452Z,2.2
2023-11-16T04:15:18.338Z,2.2
2023-11-16T04:16:25.450Z,2.2
2023-11-16T04:17:32.596Z,2.1
2023-11-16T04:18:39.183Z,2.1
2023-11-16T04:19:47.762Z,2.1
2023-11-16T04:20:53.351Z,2.1
2023-11-16T04:23:07.515Z,2.1
2023-11-16T04:24:14.172Z,2.1
2023-11-16T04:25:21.293Z,2.1
2023-11-16T04:26:28.330Z,2.1
2023-11-16T04:27:35.515Z,2.1
2023-11-16T04:28:42.539Z,2.1
2023-11-16T04:29:49.145Z,2
2023-11-16T04:30:56.320Z,2
2023-11-16T04:32:03.386Z,2
2023-11-16T04:33:10.512Z,2
2023-11-16T04:34:17.575Z,2
2023-11-16T04:35:24.191Z,2
2023-11-16T04:36:33.278Z,2
2023-11-16T04:37:38.363Z,2
2023-11-16T04:38:45.451Z,2
2023-11-16T04:39:52.552Z,2
2023-11-16T04:40:59.797Z,2
2023-11-16T04:42:06.583Z,2
2023-11-16T04:43:13.365Z,2
2023-11-16T04:44:20.437Z,2
2023-11-16T04:45:27.617Z,2
2023-11-16T04:46:34.195Z,2
2023-11-16T04:47:41.317Z,2.1
2023-11-16T04:48:48.492Z,2.1
2023-11-16T04:49:55.535Z,2.1
2023-11-16T04:51:02.609Z,2.1
2023-11-16T04:52:09.138Z,2.1
2023-11-16T04:53:16.342Z,2.1
2023-11-16T04:54:23.426Z,2.2
2023-11-16T04:55:30.470Z,2.2
2023-11-16T04:56:37.631Z,2.2
2023-11-16T04:57:44.351Z,2.2
2023-11-16T04:58:51.279Z,2.2
2023-11-16T04:59:58.389Z,2.2
2023-11-16T05:01:05.606Z,2.2
2023-11-16T05:02:12.589Z,2.2
2023-11-16T05:03:19.313Z,2.2
2023-11-16T05:04:26.499Z,2.1
2023-11-16T05:05:33.370Z,2.1
2023-11-16T05:06:40.510Z,2.1
2023-11-16T05:07:47.599Z,2.1
2023-11-16T05:08:54.220Z,2.1
2023-11-16T05:10:01.288Z,2.1
2023-11-16T05:11:08.394Z,2.1
2023-11-16T05:12:15.541Z,2.1
2023-11-16T05:13:22.630Z,2.1
2023-11-16T05:14:29.223Z,2.1
2023-11-16T05:15:37.319Z,2.1
2023-11-16T05:16:43.469Z,2.1
2023-11-16T05:17:50.573Z,2.1
2023-11-16T05:18:57.623Z,2.1
2023-11-16T05:20:04.212Z,2.1
2023-11-16T05:21:11.703Z,2.1
2023-11-16T05:22:18.423Z,2.1
2023-11-16T05:23:25.539Z,2
2023-11-16T05:24:32.194Z,2
2023-11-16T05:26:46.347Z,2
2023-11-16T05:27:53.407Z,2
2023-11-16T05:29:00.559Z,1.9
2023-11-16T05:30:07.134Z,1.9
2023-11-16T05:31:14.281Z,1.9
2023-11-16T05:32:21.360Z,1.9
2023-11-16T05:33:28.509Z,1.9
2023-11-16T05:34:35.580Z,1.9
2023-11-16T05:35:42.149Z,1.9
2023-11-16T05:36:49.302Z,1.9
2023-11-16T05:37:56.381Z,1.9
2023-11-16T05:39:03.540Z,1.9
2023-11-16T05:40:10.548Z,1.9
2023-11-16T05:41:17.626Z,1.9
2023-11-16T05:42:24.294Z,1.9
2023-11-16T05:43:31.317Z,1.8
2023-11-16T05:44:38.996Z,1.8
2023-11-16T05:45:45.628Z,1.8
2023-11-16T05:46:52.168Z,1.8
2023-11-16T05:47:59.330Z,1.7
2023-11-16T05:49:06.362Z,1.7
2023-11-16T05:50:13.457Z,1.7
2023-11-16T05:51:20.626Z,1.7
2023-11-16T05:52:27.187Z,1.7
2023-11-16T05:53:34.273Z,1.7
2023-11-16T05:54:41.355Z,1.6
2023-11-16T05:55:48.471Z,1.6
2023-11-16T05:56:55.646Z,1.6
2023-11-16T05:58:02.209Z,1.6
2023-11-16T05:59:09.231Z,1.6
2023-11-16T06:00:16.463Z,1.6
2023-11-16T06:01:23.505Z,1.6
2023-11-16T06:02:32.213Z,1.6
2023-11-16T06:03:37.269Z,1.6
2023-11-16T06:05:51.463Z,1.7
2023-11-16T06:06:58.503Z,1.6
2023-11-16T06:08:05.633Z,1.6
2023-11-16T06:09:12.259Z,1.6
2023-11-16T06:10:19.280Z,1.6
2023-11-16T06:11:26.432Z,1.6
2023-11-16T06:12:33.537Z,1.6
2023-11-16T06:13:40.735Z,1.5
2023-11-16T06:14:47.361Z,1.5
2023-11-16T06:15:54.376Z,1.5
2023-11-16T06:17:01.413Z,1.5
2023-11-16T06:18:08.586Z,1.5
2023-11-16T06:19:15.620Z,1.4
2023-11-16T06:20:22.204Z,1.4
2023-11-16T06:21:29.354Z,1.4
2023-11-16T06:22:36.440Z,1.4
2023-11-16T06:23:43.507Z,1.3
2023-11-16T06:24:50.668Z,1.3
2023-11-16T06:25:57.265Z,1.3
2023-11-16T06:27:04.295Z,1.4
2023-11-16T06:28:11.470Z,1.3
2023-11-16T06:30:25.690Z,1.3
2023-11-16T06:31:32.252Z,1.3
2023-11-16T06:32:39.324Z,1.4
2023-11-16T06:33:46.448Z,1.4
2023-11-16T06:34:53.620Z,1.4
2023-11-16T06:36:00.632Z,1.4
2023-11-16T06:37:07.259Z,1.4
2023-11-16T06:38:14.391Z,1.4
2023-11-16T06:39:21.434Z,1.4
2023-11-16T06:40:28.498Z,1.4
2023-11-16T06:41:35.650Z,1.4
2023-11-16T06:42:42.285Z,1.4
2023-11-16T06:43:49.295Z,1.4
2023-11-16T06:44:56.498Z,1.4
2023-11-16T06:46:03.624Z,1.4
2023-11-16T06:47:10.658Z,1.4
2023-11-16T06:48:17.841Z,1.5
2023-11-16T06:49:24.349Z,1.4
2023-11-16T06:50:31.423Z,1.4
2023-11-16T06:51:38.734Z,1.4
2023-11-16T06:52:45.687Z,1.4
2023-11-16T06:53:52.247Z,1.4
2023-11-16T06:54:59.396Z,1.4
2023-11-16T06:56:06.463Z,1.4
2023-11-16T06:57:13.713Z,1.4
2023-11-16T06:58:20.631Z,1.4
2023-11-16T06:59:27.287Z,1.4
2023-11-16T07:00:34.390Z,1.4
2023-11-16T07:01:41.510Z,1.4
2023-11-16T07:02:48.687Z,1.4
2023-11-16T07:03:55.837Z,1.4
2023-11-16T07:05:02.270Z,1.4
2023-11-16T07:06:09.349Z,1.5
2023-11-16T07:07:16.475Z,1.5
2023-11-16T07:08:26.832Z,1.5
2023-11-16T07:09:30.775Z,1.5
2023-11-16T07:10:37.284Z,1.5
2023-11-16T07:11:44.408Z,1.5
2023-11-16T07:12:51.527Z,1.5
2023-11-16T07:13:58.679Z,1.5
2023-11-16T07:15:05.754Z,1.5
2023-11-16T07:16:12.264Z,1.5
2023-11-16T07:17:19.429Z,1.5
2023-11-16T07:18:26.955Z,1.5
2023-11-16T07:19:33.865Z,1.6
2023-11-16T07:20:40.660Z,1.6
2023-11-16T07:21:47.331Z,1.6
2023-11-16T07:22:54.386Z,1.6
2023-11-16T07:24:01.494Z,1.7
2023-11-16T07:25:08.819Z,1.6
2023-11-16T07:26:15.745Z,1.7
2023-11-16T07:27:22.287Z,1.7
2023-11-16T07:28:29.399Z,1.7
2023-11-16T07:29:36.485Z,1.7
2023-11-16T07:30:43.825Z,1.7
2023-11-16T07:31:50.728Z,1.7
2023-11-16T07:34:04.366Z,1.6
2023-11-16T07:35:11.495Z,1.7
2023-11-16T07:36:18.619Z,1.7
2023-11-16T07:37:25.708Z,1.7
2023-11-16T07:38:32.334Z,1.7
2023-11-16T07:39:39.459Z,1.7
2023-11-16T07:40:46.549Z,1.7
2023-11-16T07:41:53.752Z,1.7
2023-11-16T07:43:00.710Z,1.7
2023-11-16T07:44:07.304Z,1.7
2023-11-16T07:45:14.476Z,1.7
2023-11-16T07:46:21.548Z,1.7
2023-11-16T07:47:28.774Z,1.7
2023-11-16T07:48:35.800Z,1.7
2023-11-16T07:49:42.350Z,1.7
2023-11-16T07:50:49.415Z,1.7
2023-11-16T07:51:56.771Z,1.7
2023-11-16T07:53:03.811Z,1.7
2023-11-16T07:54:10.210Z,1.7
2023-11-16T07:55:17.545Z,1.7
2023-11-16T07:56:24.451Z,1.7
2023-11-16T07:57:31.560Z,1.7
2023-11-16T07:58:38.679Z,1.7
2023-11-16T07:59:45.240Z,1.7
2023-11-16T08:00:52.393Z,1.8
2023-11-16T08:01:59.451Z,1.8
2023-11-16T08:03:06.699Z,1.8
2023-11-16T08:04:14.058Z,1.8
2023-11-16T08:05:20.383Z,1.9
2023-11-16T08:06:29.761Z,1.9
2023-11-16T08:07:34.686Z,1.9
2023-11-16T08:08:41.572Z,1.9
2023-11-16T08:09:48.709Z,1.9
2023-11-16T08:10:55.299Z,1.9
2023-11-16T08:12:02.352Z,2
2023-11-16T08:13:09.439Z,2
2023-11-16T08:14:16.624Z,2
2023-11-16T08:15:23.780Z,2.1
2023-11-16T08:16:32.022Z,2.1
2023-11-16T08:17:37.383Z,2.1
2023-11-16T08:18:44.499Z,2.1
2023-11-16T08:19:54.633Z,2.1
2023-11-16T08:20:58.759Z,2.1
2023-11-16T08:22:05.311Z,2.1
2023-11-16T08:23:12.376Z,2.1
2023-11-16T08:24:19.477Z,2.1
2023-11-16T08:25:26.616Z,2.1
2023-11-16T08:26:33.824Z,2.1
2023-11-16T08:27:40.278Z,2.1
2023-11-16T08:28:50.523Z,2.1
2023-11-16T08:29:54.460Z,2.1
2023-11-16T08:31:03.747Z,2.1
2023-11-16T08:32:08.732Z,2.1
2023-11-16T08:33:15.831Z,2.1
2023-11-16T08:34:22.370Z,2.1
2023-11-16T08:35:29.470Z,2.1
2023-11-16T08:36:36.669Z,2.1
2023-11-16T08:37:43.826Z,2.1
2023-11-16T08:38:50.290Z,2.1
2023-11-16T08:39:57.428Z,2.1
2023-11-16T08:41:04.501Z,2.1
2023-11-16T08:42:11.594Z,2.2
2023-11-16T08:43:18.672Z,2.2
2023-11-16T08:44:25.382Z,2.2
2023-11-16T08:45:32.480Z,2.2
2023-11-16T08:46:39.489Z,2.2
2023-11-16T08:47:46.655Z,2.2
2023-11-16T08:48:53.754Z,2.2
2023-11-16T08:50:00.409Z,2.3
2023-11-16T08:51:07.995Z,2.3
2023-11-16T08:52:14.468Z,2.3
2023-11-16T08:53:21.599Z,2.3
2023-11-16T08:54:28.733Z,2.3
2023-11-16T08:56:43.107Z,2.3
2023-11-16T08:57:49.539Z,2.3
2023-11-16T08:58:56.679Z,2.3
2023-11-16T09:00:03.744Z,2.3
2023-11-16T09:02:17.392Z,2.3
2023-11-16T09:03:24.655Z,2.4
2023-11-16T09:04:31.748Z,2.4
2023-11-16T09:05:38.765Z,2.4
2023-11-16T09:06:45.410Z,2.4
2023-11-16T09:07:52.501Z,2.5
2023-11-16T09:08:59.518Z,2.5
2023-11-16T09:10:06.656Z,2.5
2023-11-16T09:11:13.734Z,2.5
2023-11-16T09:12:20.369Z,2.5
2023-11-16T09:13:27.431Z,2.5
2023-11-16T09:14:34.496Z,2.5
2023-11-16T09:15:41.651Z,2.5
2023-11-16T09:16:56.047Z,2.6
2023-11-16T09:17:55.635Z,2.6
2023-11-16T09:19:02.626Z,2.7
2023-11-16T09:20:09.513Z,2.7
2023-11-16T09:21:16.814Z,2.7
2023-11-16T09:22:23.800Z,2.7
2023-11-16T09:23:30.446Z,2.7
2023-11-16T09:24:37.483Z,2.7
2023-11-16T09:25:44.531Z,2.7
2023-11-16T09:26:51.630Z,2.7
2023-11-16T09:27:58.825Z,2.7
2023-11-16T09:29:08.248Z,2.7
2023-11-16T09:30:12.446Z,2.7
2023-11-16T09:31:19.588Z,2.7
2023-11-16T09:32:26.684Z,2.8
2023-11-16T09:33:33.763Z,2.8
2023-11-16T09:34:40.387Z,2.8
2023-11-16T09:35:47.505Z,2.8
2023-11-16T09:36:54.643Z,2.8
2023-11-16T09:38:01.678Z,2.8
2023-11-16T09:39:08.765Z,2.8
2023-11-16T09:40:15.428Z,2.9
2023-11-16T09:41:22.499Z,2.9
2023-11-16T09:42:29.602Z,2.9
2023-11-16T09:43:36.699Z,2.9
2023-11-16T09:44:43.808Z,2.9
2023-11-16T09:45:50.480Z,2.9
2023-11-16T09:46:57.468Z,2.9
2023-11-16T09:48:04.632Z,2.9
2023-11-16T09:49:11.687Z,2.9
2023-11-16T09:50:18.778Z,2.9
2023-11-16T09:51:25.493Z,2.9
2023-11-16T09:52:32.545Z,2.9
2023-11-16T09:53:39.554Z,2.9
2023-11-16T09:54:46.799Z,2.9
2023-11-16T09:55:53.817Z,2.9
2023-11-16T09:57:00.379Z,2.9
2023-11-16T09:58:07.528Z,2.9
2023-11-16T10:00:21.717Z,2.9
2023-11-16T10:01:28.922Z,2.9
2023-11-16T10:02:35.497Z,2.9
2023-11-16T10:03:43.055Z,2.9
2023-11-16T10:04:49.618Z,3
2023-11-16T10:05:56.736Z,3
2023-11-16T10:07:03.862Z,3
2023-11-16T10:08:10.541Z,3
2023-11-16T10:09:17.542Z,3.1
2023-11-16T10:10:24.655Z,3
2023-11-16T10:11:31.760Z,3.1
2023-11-16T10:12:38.884Z,3.1
2023-11-16T10:13:46.501Z,3.1
2023-11-16T10:14:53.114Z,3.1
2023-11-16T10:15:59.720Z,3.1
2023-11-16T10:17:06.766Z,3.1
2023-11-16T10:18:13.984Z,3.1
2023-11-16T10:19:20.437Z,3.1
2023-11-16T10:20:27.526Z,3.1
2023-11-16T10:21:34.660Z,3.1
2023-11-16T10:22:41.751Z,3.1
2023-11-16T10:23:48.344Z,3.1
2023-11-16T10:24:55.518Z,3.1
2023-11-16T10:26:02.581Z,3.1
2023-11-16T10:27:09.644Z,3.1
2023-11-16T10:28:16.771Z,3
2023-11-16T10:30:30.486Z,3
2023-11-16T10:31:37.551Z,3
2023-11-16T10:32:44.687Z,3
2023-11-16T10:33:51.768Z,3
2023-11-16T10:34:58.869Z,3
2023-11-16T10:36:05.511Z,3
2023-11-16T10:37:12.652Z,2.9
2023-11-16T10:38:19.707Z,3
2023-11-16T10:39:26.848Z,2.9
2023-11-16T10:40:33.335Z,3
2023-11-16T10:41:40.416Z,3
2023-11-16T10:42:47.588Z,3
2023-11-16T10:43:54.628Z,3.1
2023-11-16T10:45:01.835Z,3.1
2023-11-16T10:46:08.936Z,3.1
2023-11-16T10:47:15.560Z,3.1
2023-11-16T10:48:22.636Z,3.1
2023-11-16T10:49:29.650Z,3.2
2023-11-16T10:50:36.824Z,3.2
2023-11-16T10:51:43.584Z,3.3
2023-11-16T10:52:50.473Z,3.3
2023-11-16T10:53:57.549Z,3.3
2023-11-16T10:55:07.553Z,3.3
2023-11-16T10:56:11.792Z,3.3
2023-11-16T10:57:18.382Z,3.3
2023-11-16T10:58:27.804Z,3.3
2023-11-16T10:59:32.609Z,3.3
2023-11-16T11:00:39.710Z,3.3
2023-11-16T11:01:46.853Z,3.3
2023-11-16T11:04:00.731Z,3.3
2023-11-16T11:05:07.671Z,3.3
2023-11-16T11:06:14.654Z,3.3
2023-11-16T11:07:21.765Z,3.3
2023-11-16T11:08:28.347Z,3.3
2023-11-16T11:09:35.526Z,3.3
2023-11-16T11:10:42.805Z,3.3
2023-11-16T11:11:49.701Z,3.3
2023-11-16T11:12:56.854Z,3.3
2023-11-16T11:14:03.402Z,3.3
2023-11-16T11:15:10.549Z,3.3
2023-11-16T11:16:17.604Z,3.3
2023-11-16T11:17:24.675Z,3.3
2023-11-16T11:18:31.924Z,3.3
2023-11-16T11:19:38.358Z,3.3
2023-11-16T11:20:47.709Z,3.3
2023-11-16T11:21:52.604Z,3.3
2023-11-16T11:22:59.674Z,3.3
2023-11-16T11:24:07.455Z,3.3
2023-11-16T11:25:13.426Z,3.3
2023-11-16T11:26:20.617Z,3.3
2023-11-16T11:27:27.672Z,3.3
2023-11-16T11:28:34.685Z,3.3
2023-11-16T11:29:41.821Z,3.4
2023-11-16T11:30:48.449Z,3.4
2023-11-16T11:31:55.546Z,3.5
2023-11-16T11:33:06.208Z,3.5
2023-11-16T11:34:09.754Z,3.5
2023-11-16T11:35:16.834Z,3.5
2023-11-16T11:36:23.473Z,3.5
2023-11-16T11:37:30.485Z,3.5
2023-11-16T11:38:37.639Z,3.5
2023-11-16T11:39:44.775Z,3.5
2023-11-16T11:40:51.871Z,3.5
2023-11-16T11:41:58.428Z,3.5
2023-11-16T11:43:05.563Z,3.5
2023-11-16T11:44:14.933Z,3.5
2023-11-16T11:45:19.809Z,3.5
2023-11-16T11:46:26.909Z,3.5
2023-11-16T11:47:33.592Z,3.5
2023-11-16T11:48:40.554Z,3.5
2023-11-16T11:49:47.616Z,3.5
2023-11-16T11:50:54.804Z,3.5
2023-11-16T11:52:01.912Z,3.5
2023-11-16T11:53:08.472Z,3.5
2023-11-16T11:54:15.609Z,3.5
2023-11-16T11:55:22.746Z,3.5
2023-11-16T11:56:29.756Z,3.5
2023-11-16T11:58:43.446Z,3.6
2023-11-16T11:59:50.540Z,3.6
2023-11-16T12:00:57.716Z,3.6
2023-11-16T12:02:04.828Z,3.6
2023-11-16T12:03:12.010Z,3.6
2023-11-16T12:04:21.606Z,3.6
2023-11-16T12:05:25.835Z,3.6
2023-11-16T12:07:39.740Z,3.7
2023-11-16T12:08:46.882Z,3.6
2023-11-16T12:09:53.622Z,3.7
2023-11-16T12:11:00.568Z,3.6
2023-11-16T12:12:07.709Z,3.7
2023-11-16T12:13:15.026Z,3.7
2023-11-16T12:14:21.941Z,3.7
2023-11-16T12:15:28.532Z,3.7
2023-11-16T12:16:35.639Z,3.7
2023-11-16T12:17:42.721Z,3.7
2023-11-16T12:18:49.810Z,3.7
2023-11-16T12:19:56.942Z,3.7
2023-11-16T12:21:03.522Z,3.8
2023-11-16T12:22:10.652Z,3.8
2023-11-16T12:23:17.678Z,3.8
2023-11-16T12:24:24.990Z,3.8
2023-11-16T12:25:31.867Z,3.9
2023-11-16T12:26:38.499Z,3.9
2023-11-16T12:27:45.675Z,3.9
2023-11-16T12:28:52.696Z,3.9
2023-11-16T12:30:00.676Z,3.9
2023-11-16T12:31:06.999Z,3.9
2023-11-16T12:32:13.534Z,3.9
2023-11-16T12:33:20.707Z,3.9
2023-11-16T12:34:27.683Z,3.9
2023-11-16T12:35:34.947Z,3.9
2023-11-16T12:36:41.980Z,3.9
2023-11-16T12:37:48.505Z,3.9
2023-11-16T12:38:55.639Z,3.9
2023-11-16T12:40:02.784Z,3.9
2023-11-16T12:41:09.853Z,4
2023-11-16T12:42:16.421Z,4
2023-11-16T12:43:23.545Z,4
2023-11-16T12:44:30.721Z,4
2023-11-16T12:45:37.885Z,4
2023-11-16T12:46:44.996Z,4
2023-11-16T12:47:51.438Z,4.1
2023-11-16T12:48:58.573Z,4.1
2023-11-16T12:50:05.642Z,4.1
2023-11-16T12:51:12.769Z,4.1
2023-11-16T12:52:19.827Z,4.1
2023-11-16T12:53:26.469Z,4.1
2023-11-16T12:54:33.631Z,4.1
2023-11-16T12:55:40.717Z,4.1
2023-11-16T12:56:47.722Z,4.1
2023-11-16T12:57:55.004Z,4.1
2023-11-16T12:59:01.392Z,4.1
2023-11-16T13:00:08.536Z,4.2
2023-11-16T13:01:15.710Z,4.2
2023-11-16T13:02:22.804Z,4.2
2023-11-16T13:03:39.287Z,4.2
2023-11-16T13:04:36.571Z,4.3
2023-11-16T13:05:43.724Z,4.3
2023-11-16T13:06:50.693Z,4.3
2023-11-16T13:07:57.739Z,4.3
2023-11-16T13:09:05.001Z,4.3
2023-11-16T13:11:18.708Z,4.3
2023-11-16T13:12:25.776Z,4.3
2023-11-16T13:13:32.765Z,4.3
2023-11-16T13:14:39.861Z,4.4
2023-11-16T13:15:46.490Z,4.4
2023-11-16T13:16:53.662Z,4.4
2023-11-16T13:18:00.679Z,4.5
2023-11-16T13:19:07.833Z,4.5
2023-11-16T13:20:15.006Z,4.5
2023-11-16T13:21:21.445Z,4.5
2023-11-16T13:22:28.561Z,4.5
2023-11-16T13:23:35.644Z,4.5
2023-11-16T13:24:42.880Z,4.5
2023-11-16T13:26:56.513Z,4.5
2023-11-16T13:28:03.643Z,4.6
2023-11-16T13:29:13.845Z,4.6
2023-11-16T13:30:17.781Z,4.6
2023-11-16T13:31:25.225Z,4.6
2023-11-16T13:32:31.500Z,4.6
2023-11-16T13:33:38.633Z,4.6
2023-11-16T13:34:45.690Z,4.6
2023-11-16T13:35:52.791Z,4.7
2023-11-16T13:36:59.925Z,4.7
2023-11-16T13:38:06.702Z,4.7
2023-11-16T13:39:13.594Z,4.7
2023-11-16T13:40:20.761Z,4.7
2023-11-16T13:41:27.797Z,4.7
2023-11-16T13:42:35.113Z,4.7
2023-11-16T13:43:41.513Z,4.7
2023-11-16T13:44:48.625Z,4.7
2023-11-16T13:45:55.818Z,4.7
2023-11-16T13:47:03.598Z,4.7
2023-11-16T13:48:10.068Z,4.7
2023-11-16T13:49:16.500Z,4.7
2023-11-16T13:50:23.638Z,4.7
2023-11-16T13:51:30.814Z,4.6
2023-11-16T13:52:37.784Z,4.6
2023-11-16T13:53:44.931Z,4.7
2023-11-16T13:54:51.588Z,4.6
2023-11-16T13:55:58.580Z,4.7
2023-11-16T13:57:05.712Z,4.7
2023-11-16T13:58:12.821Z,4.6
2023-11-16T13:59:19.943Z,4.6
2023-11-16T14:00:26.571Z,4.7
2023-11-16T14:01:33.667Z,4.6
2023-11-16T14:02:40.744Z,4.7
2023-11-16T14:03:47.930Z,4.6
2023-11-16T14:04:54.977Z,4.6
2023-11-16T14:06:01.536Z,4.6
2023-11-16T14:07:08.644Z,4.6
2023-11-16T14:08:15.696Z,4.6
2023-11-16T14:09:22.928Z,4.6
2023-11-16T14:10:29.964Z,4.6
2023-11-16T14:11:36.561Z,4.6
2023-11-16T14:12:43.682Z,4.6
2023-11-16T14:14:57.846Z,4.6
2023-11-16T14:16:06.010Z,4.6
2023-11-16T14:17:11.603Z,4.6
2023-11-16T14:18:18.693Z,4.6
2023-11-16T14:19:25.714Z,4.6
2023-11-16T14:20:32.884Z,4.6
2023-11-16T14:21:39.967Z,4.6
2023-11-16T14:22:46.589Z,4.6
2023-11-16T14:23:53.917Z,4.6
2023-11-16T14:25:00.758Z,4.6
2023-11-16T14:26:07.964Z,4.6
2023-11-16T14:27:15.062Z,4.6
2023-11-16T14:28:21.574Z,4.6
2023-11-16T14:29:28.653Z,4.7
2023-11-16T14:30:35.849Z,4.7
2023-11-16T14:31:42.940Z,4.7
2023-11-16T14:32:49.995Z,4.7
2023-11-16T14:33:56.764Z,4.7
2023-11-16T14:35:14.170Z,4.8
2023-11-16T14:36:10.767Z,4.7
2023-11-16T14:37:17.898Z,4.7
2023-11-16T14:38:25.013Z,4.7
2023-11-16T14:39:31.587Z,4.8
2023-11-16T14:40:38.657Z,4.8
2023-11-16T14:41:45.762Z,4.8
2023-11-16T14:42:52.928Z,4.8
2023-11-16T14:43:59.484Z,4.8
2023-11-16T14:45:06.600Z,4.8
2023-11-16T14:46:13.845Z,4.8
2023-11-16T14:47:28.907Z,4.8
2023-11-16T14:48:28.771Z,4.9
2023-11-16T14:49:34.568Z,4.8
2023-11-16T14:50:41.571Z,4.8
2023-11-16T14:51:48.725Z,4.8
2023-11-16T14:53:01.740Z,4.8
2023-11-16T14:55:09.532Z,4.8
2023-11-16T14:56:16.642Z,4.8
2023-11-16T14:57:23.739Z,4.8
2023-11-16T14:58:30.805Z,4.8
2023-11-16T14:59:37.919Z,4.8
2023-11-16T15:00:44.610Z,4.8
2023-11-16T15:01:51.592Z,4.8
2023-11-16T15:03:00.470Z,4.8
2023-11-16T15:04:05.835Z,4.8
2023-11-16T15:05:15.326Z,4.8
2023-11-16T15:06:19.482Z,4.8
2023-11-16T15:07:26.635Z,4.8
2023-11-16T15:08:33.851Z,4.7
2023-11-16T15:09:40.800Z,4.8
2023-11-16T15:10:47.892Z,4.8
2023-11-16T15:11:55.047Z,4.8
2023-11-16T15:13:01.670Z,4.8
2023-11-16T15:14:08.842Z,4.7
2023-11-16T15:15:15.867Z,4.7
2023-11-16T15:16:22.990Z,4.7
2023-11-16T15:18:36.645Z,4.6
2023-11-16T15:19:43.806Z,4.6
2023-11-16T15:20:50.867Z,4.6
2023-11-16T15:21:58.017Z,4.6
2023-11-16T15:23:04.566Z,4.6
2023-11-16T15:24:11.620Z,4.6
2023-11-16T15:25:18.745Z,4.6
2023-11-16T15:26:29.719Z,4.5
2023-11-16T15:27:32.969Z,4.5
2023-11-16T15:28:39.520Z,4.5
2023-11-16T15:29:46.643Z,4.4
2023-11-16T15:30:53.899Z,4.4
2023-11-16T15:32:00.999Z,4.4
2023-11-16T15:33:08.765Z,4.4
2023-11-16T15:34:14.670Z,4.4
2023-11-16T15:35:22.086Z,4.4
2023-11-16T15:36:28.926Z,4.3
2023-11-16T15:37:35.865Z,4.3
2023-11-16T15:38:42.974Z,4.3
2023-11-16T15:39:49.656Z,4.2
2023-11-16T15:40:56.669Z,4.2
2023-11-16T15:42:03.797Z,4.2
2023-11-16T15:43:10.954Z,4.2
2023-11-16T15:44:17.988Z,4.2
2023-11-16T15:45:24.570Z,4.2
2023-11-16T15:46:31.745Z,4.2
2023-11-16T15:47:38.793Z,4.2
2023-11-16T15:48:45.933Z,4.2
2023-11-16T15:49:53.018Z,4.1
2023-11-16T15:50:59.531Z,4.1
2023-11-16T15:52:06.695Z,4.1